createdAt,value
2018-12-21T00:02:19.286Z,10.70
2018-12-21T00:04:48.533Z,10.75
2018-12-21T00:07:17.866Z,11.05
2018-12-21T00:09:47.159Z,11.18
2018-12-21T00:12:16.691Z,11.00
2018-12-21T00:14:45.801Z,11.12
2018-12-21T00:17:15.155Z,10.79
2018-12-21T00:19:44.509Z,10.86
2018-12-21T00:22:13.712Z,10.80
2018-12-21T00:24:43.260Z,11.16
2018-12-21T00:27:12.663Z,11.27
2018-12-21T00:29:41.978Z,11.19
2018-12-21T00:32:16.271Z,11.38
2018-12-21T00:34:50.744Z,11.43
2018-12-21T00:37:25.391Z,11.46
2018-12-21T00:39:59.720Z,11.31
2018-12-21T00:42:53.191Z,10.35
2018-12-21T00:45:27.044Z,10.48
2018-12-21T00:47:56.517Z,10.75
2018-12-21T00:50:25.868Z,10.28
2018-12-21T00:52:55.429Z,10.58
2018-12-21T00:55:24.831Z,11.04
2018-12-21T00:57:54.219Z,11.20
2018-12-21T01:00:26.071Z,11.39
2018-12-21T01:02:55.523Z,11.53
2018-12-21T01:05:25.008Z,11.54
2018-12-21T01:07:54.512Z,11.52
2018-12-21T01:10:24.081Z,11.56
2018-12-21T01:12:53.780Z,11.54
2018-12-21T01:15:23.201Z,11.33
2018-12-21T01:17:52.630Z,10.77
2018-12-21T01:20:22.696Z,11.06
2018-12-21T01:22:52.143Z,11.16
2018-12-21T01:25:21.532Z,10.99
2018-12-21T01:27:50.597Z,10.97
2018-12-21T01:30:20.023Z,11.17
2018-12-21T01:32:49.483Z,11.27
2018-12-21T01:35:18.999Z,11.37
2018-12-21T01:37:48.416Z,11.36
2018-12-21T01:40:17.819Z,11.09
2018-12-21T01:42:47.177Z,11.15
2018-12-21T01:45:16.664Z,11.22
2018-12-21T01:47:46.195Z,11.32
2018-12-21T01:50:15.824Z,11.09
2018-12-21T01:52:45.159Z,11.12
2018-12-21T01:55:14.366Z,11.37
2018-12-21T01:57:43.815Z,11.12
2018-12-21T02:00:13.071Z,11.26
2018-12-21T02:02:42.468Z,11.20
2018-12-21T02:05:11.698Z,10.65
2018-12-21T02:07:40.964Z,10.72
2018-12-21T02:10:10.273Z,10.89
2018-12-21T02:12:39.800Z,11.20
2018-12-21T02:15:14.587Z,11.43
2018-12-21T02:17:43.850Z,11.59
2018-12-21T02:20:13.123Z,11.44
2018-12-21T02:22:42.692Z,11.63
2018-12-21T02:25:12.036Z,11.28
2018-12-21T02:27:41.183Z,10.87
2018-12-21T02:30:10.664Z,11.10
2018-12-21T02:32:39.996Z,10.39
2018-12-21T02:35:09.319Z,10.80
2018-12-21T02:37:38.580Z,11.10
2018-12-21T02:40:08.335Z,11.31
2018-12-21T02:42:38.108Z,11.01
2018-12-21T02:45:08.695Z,10.47
2018-12-21T02:47:38.280Z,9.98
2018-12-21T02:50:07.686Z,9.91
2018-12-21T02:52:37.166Z,10.17
2018-12-21T02:55:06.945Z,10.25
2018-12-21T02:57:36.805Z,9.97
2018-12-21T03:00:07.139Z,9.98
2018-12-21T03:02:36.375Z,9.88
2018-12-21T03:05:05.844Z,9.64
2018-12-21T03:07:35.311Z,9.69
2018-12-21T03:10:04.947Z,9.78
2018-12-21T03:12:34.656Z,9.44
2018-12-21T03:15:04.667Z,9.28
2018-12-21T03:17:34.069Z,9.45
2018-12-21T03:20:03.704Z,9.68
2018-12-21T03:22:32.967Z,9.56
2018-12-21T03:25:02.296Z,9.38
2018-12-21T03:27:31.599Z,9.49
2018-12-21T03:30:00.965Z,9.62
2018-12-21T03:32:30.312Z,9.66
2018-12-21T03:34:59.672Z,9.77
2018-12-21T03:37:28.772Z,10.03
2018-12-21T03:39:58.126Z,9.86
2018-12-21T03:42:27.628Z,9.74
2018-12-21T03:44:57.091Z,9.76
2018-12-21T03:47:26.402Z,9.67
2018-12-21T03:49:55.783Z,9.41
2018-12-21T03:52:25.088Z,9.56
2018-12-21T03:54:54.391Z,9.78
2018-12-21T03:57:23.793Z,10.17
2018-12-21T03:59:53.299Z,9.97
2018-12-21T04:02:22.629Z,10.22
2018-12-21T04:04:51.923Z,10.45
2018-12-21T04:07:21.211Z,10.03
2018-12-21T04:09:50.528Z,9.97
2018-12-21T04:12:20.148Z,9.62
2018-12-21T04:14:49.611Z,9.89
2018-12-21T04:17:19.067Z,9.96
2018-12-21T04:19:48.359Z,9.84
2018-12-21T04:22:17.821Z,9.71
2018-12-21T04:24:47.210Z,9.79
2018-12-21T04:27:16.392Z,9.97
2018-12-21T04:29:45.743Z,9.99
2018-12-21T04:32:15.072Z,10.04
2018-12-21T04:34:44.519Z,9.74
2018-12-21T04:37:14.150Z,9.96
2018-12-21T04:39:43.546Z,10.11
2018-12-21T04:42:12.908Z,9.86
2018-12-21T04:44:42.295Z,9.76
2018-12-21T04:47:11.600Z,9.91
2018-12-21T04:49:40.888Z,9.84
2018-12-21T04:52:10.115Z,10.02
2018-12-21T04:54:39.361Z,10.14
2018-12-21T04:57:08.845Z,10.40
2018-12-21T04:59:38.135Z,10.50
2018-12-21T05:02:07.413Z,10.28
2018-12-21T05:04:37.016Z,10.20
2018-12-21T05:07:12.409Z,10.06
2018-12-21T05:09:38.293Z,9.73
2018-12-21T05:12:07.856Z,9.79
2018-12-21T05:14:37.489Z,9.51
2018-12-21T05:17:07.301Z,9.43
2018-12-21T05:19:36.527Z,9.42
2018-12-21T05:22:05.584Z,9.34
2018-12-21T05:24:34.786Z,9.35
2018-12-21T05:27:03.839Z,9.24
2018-12-21T05:29:32.957Z,9.08
2018-12-21T05:32:02.054Z,9.05
2018-12-21T05:34:31.521Z,9.13
2018-12-21T05:37:00.901Z,9.18
2018-12-21T05:39:30.283Z,9.06
2018-12-21T05:41:59.455Z,9.22
2018-12-21T05:44:28.816Z,9.23
2018-12-21T05:46:58.052Z,9.23
2018-12-21T05:49:27.259Z,9.27
2018-12-21T05:51:56.404Z,9.14
2018-12-21T05:54:25.568Z,9.27
2018-12-21T05:56:54.799Z,9.23
2018-12-21T05:59:23.947Z,9.55
2018-12-21T06:01:53.139Z,9.56
2018-12-21T06:04:22.376Z,9.34
2018-12-21T06:06:51.632Z,9.43
2018-12-21T06:09:20.782Z,9.71
2018-12-21T06:11:49.947Z,9.89
2018-12-21T06:14:19.066Z,10.09
2018-12-21T06:16:48.232Z,9.73
2018-12-21T06:19:17.350Z,9.49
2018-12-21T06:21:46.669Z,9.51
2018-12-21T06:24:16.131Z,9.78
2018-12-21T06:26:45.120Z,10.11
2018-12-21T06:29:14.441Z,10.50
2018-12-21T06:31:43.653Z,10.68
2018-12-21T06:34:13.107Z,10.77
2018-12-21T06:36:42.425Z,10.78
2018-12-21T06:39:11.672Z,10.82
2018-12-21T06:41:40.811Z,10.55
2018-12-21T06:44:10.228Z,10.64
2018-12-21T06:46:39.403Z,10.53
2018-12-21T06:49:08.671Z,10.70
2018-12-21T06:51:38.247Z,9.80
2018-12-21T06:54:07.395Z,10.02
2018-12-21T06:56:36.636Z,10.43
2018-12-21T06:59:05.700Z,10.25
2018-12-21T07:01:35.026Z,10.12
2018-12-21T07:04:04.088Z,10.37
2018-12-21T07:06:33.244Z,10.33
2018-12-21T07:09:02.582Z,9.83
2018-12-21T07:11:31.917Z,9.67
2018-12-21T07:14:01.164Z,9.61
2018-12-21T07:16:30.401Z,9.75
2018-12-21T07:18:59.717Z,10.00
2018-12-21T07:21:28.854Z,9.96
2018-12-21T07:23:58.097Z,9.80
2018-12-21T07:26:27.169Z,10.07
2018-12-21T07:28:56.315Z,10.11
2018-12-21T07:31:25.607Z,10.14
2018-12-21T07:33:54.807Z,9.98
2018-12-21T07:36:24.039Z,9.98
2018-12-21T07:38:53.383Z,9.76
2018-12-21T07:41:23.002Z,9.75
2018-12-21T07:43:52.399Z,9.82
2018-12-21T07:46:21.790Z,9.99
2018-12-21T07:48:51.053Z,10.02
2018-12-21T07:51:20.267Z,10.09
2018-12-21T07:53:49.413Z,10.16
2018-12-21T07:56:18.525Z,10.23
2018-12-21T07:58:56.790Z,10.03
2018-12-21T08:01:19.847Z,10.01
2018-12-21T08:03:49.381Z,10.05
2018-12-21T08:06:19.118Z,10.14
2018-12-21T08:08:48.192Z,10.23
2018-12-21T08:11:17.272Z,10.34
2018-12-21T08:13:46.479Z,10.32
2018-12-21T08:16:15.564Z,10.54
2018-12-21T08:18:44.865Z,10.15
2018-12-21T08:21:14.135Z,10.13
2018-12-21T08:23:44.339Z,10.29
2018-12-21T08:26:13.917Z,10.23
2018-12-21T08:28:43.115Z,10.11
2018-12-21T08:31:12.460Z,10.28
2018-12-21T08:33:41.675Z,10.27
2018-12-21T08:36:10.744Z,10.36
2018-12-21T08:38:39.936Z,10.31
2018-12-21T08:41:09.299Z,10.24
2018-12-21T08:43:38.544Z,10.06
2018-12-21T08:46:07.593Z,10.02
2018-12-21T08:48:36.928Z,10.11
2018-12-21T08:51:06.411Z,10.17
2018-12-21T08:53:35.611Z,10.14
2018-12-21T08:56:04.793Z,10.21
2018-12-21T08:58:33.928Z,10.05
2018-12-21T09:01:03.159Z,10.22
2018-12-21T09:03:32.289Z,10.27
2018-12-21T09:06:01.248Z,10.20
2018-12-21T09:08:30.305Z,10.13
2018-12-21T09:10:59.308Z,10.15
2018-12-21T09:13:28.328Z,10.35
2018-12-21T09:15:57.436Z,10.21
2018-12-21T09:18:26.423Z,10.25
2018-12-21T09:20:55.492Z,10.19
2018-12-21T09:23:24.737Z,10.28
2018-12-21T09:25:53.859Z,10.26
2018-12-21T09:28:22.997Z,10.23
2018-12-21T09:30:52.380Z,10.15
2018-12-21T09:33:21.687Z,10.15
2018-12-21T09:35:50.809Z,10.37
2018-12-21T09:38:19.802Z,10.41
2018-12-21T09:40:48.926Z,10.38
2018-12-21T09:43:18.152Z,10.37
2018-12-21T09:45:47.228Z,10.62
2018-12-21T09:48:17.032Z,10.77
2018-12-21T09:50:46.398Z,10.62
2018-12-21T09:53:15.588Z,10.86
2018-12-21T09:55:44.880Z,10.83
2018-12-21T09:58:13.930Z,10.70
2018-12-21T10:00:43.125Z,10.79
2018-12-21T10:03:12.492Z,10.83
2018-12-21T10:05:42.204Z,10.87
2018-12-21T10:08:11.260Z,10.83
2018-12-21T10:10:41.236Z,10.90
2018-12-21T10:13:10.524Z,11.07
2018-12-21T10:15:39.628Z,11.01
2018-12-21T10:18:08.836Z,10.89
2018-12-21T10:20:38.140Z,11.05
2018-12-21T10:23:07.456Z,11.15
2018-12-21T10:25:36.664Z,11.27
2018-12-21T10:28:05.864Z,11.23
2018-12-21T10:30:35.188Z,11.09
2018-12-21T10:33:04.441Z,11.14
2018-12-21T10:35:33.536Z,11.17
2018-12-21T10:38:03.147Z,11.12
2018-12-21T10:40:32.698Z,11.15
2018-12-21T10:43:01.858Z,11.32
2018-12-21T10:45:31.045Z,11.37
2018-12-21T10:48:00.246Z,11.49
2018-12-21T10:50:29.770Z,11.40
2018-12-21T10:52:59.106Z,11.24
2018-12-21T10:55:28.337Z,11.38
2018-12-21T10:57:57.454Z,11.49
2018-12-21T11:00:26.992Z,11.39
2018-12-21T11:02:56.587Z,11.49
2018-12-21T11:05:25.866Z,11.73
2018-12-21T11:07:55.508Z,11.66
2018-12-21T11:10:25.017Z,11.73
2018-12-21T11:12:54.283Z,11.76
2018-12-21T11:15:23.579Z,11.75
2018-12-21T11:17:53.083Z,11.83
2018-12-21T11:20:22.415Z,11.84
2018-12-21T11:22:51.704Z,11.84
2018-12-21T11:25:21.845Z,11.92
2018-12-21T11:27:51.242Z,11.86
2018-12-21T11:30:20.611Z,11.95
2018-12-21T11:32:50.164Z,12.12
2018-12-21T11:35:19.420Z,12.12
2018-12-21T11:37:48.756Z,12.14
2018-12-21T11:40:17.964Z,12.39
2018-12-21T11:42:47.373Z,12.25
2018-12-21T11:45:16.879Z,12.24
2018-12-21T11:47:46.276Z,12.30
2018-12-21T11:50:15.472Z,12.25
2018-12-21T11:52:44.809Z,12.45
2018-12-21T11:55:14.004Z,12.59
2018-12-21T11:57:43.348Z,12.59
2018-12-21T12:00:12.624Z,12.72
2018-12-21T12:02:41.860Z,12.89
2018-12-21T12:05:11.121Z,13.01
2018-12-21T12:07:40.487Z,12.70
2018-12-21T12:10:09.999Z,12.53
2018-12-21T12:12:39.435Z,12.45
2018-12-21T12:15:09.114Z,12.46
2018-12-21T12:17:38.268Z,12.49
2018-12-21T12:20:07.803Z,12.93
2018-12-21T12:22:36.947Z,12.87
2018-12-21T12:25:06.414Z,13.06
2018-12-21T12:27:35.512Z,12.68
2018-12-21T12:30:05.142Z,12.39
2018-12-21T12:32:34.251Z,12.37
2018-12-21T12:35:04.061Z,12.59
2018-12-21T12:37:33.551Z,12.77
2018-12-21T12:40:02.889Z,12.86
2018-12-21T12:42:32.248Z,12.98
2018-12-21T12:45:01.570Z,12.97
2018-12-21T12:47:30.821Z,12.91
2018-12-21T12:50:00.381Z,13.03
2018-12-21T12:52:29.888Z,12.94
2018-12-21T12:55:02.816Z,12.92
2018-12-21T12:57:30.604Z,12.90
2018-12-21T13:00:00.271Z,12.80
2018-12-21T13:02:29.829Z,12.83
2018-12-21T13:04:59.272Z,12.78
2018-12-21T13:07:28.739Z,13.01
2018-12-21T13:09:58.056Z,13.11
2018-12-21T13:12:27.312Z,13.07
2018-12-21T13:14:56.757Z,12.92
2018-12-21T13:17:26.143Z,13.05
2018-12-21T13:19:55.471Z,13.09
2018-12-21T13:22:25.068Z,13.04
2018-12-21T13:24:54.478Z,13.03
2018-12-21T13:27:23.776Z,13.06
2018-12-21T13:29:53.080Z,13.29
2018-12-21T13:32:22.477Z,13.08
2018-12-21T13:34:51.904Z,13.02
2018-12-21T13:37:21.056Z,13.05
2018-12-21T13:39:50.356Z,13.22
2018-12-21T13:42:19.798Z,13.10
2018-12-21T13:44:49.043Z,13.04
2018-12-21T13:47:18.295Z,13.24
2018-12-21T13:49:47.466Z,13.42
2018-12-21T13:52:16.565Z,13.33
2018-12-21T13:54:45.793Z,13.69
2018-12-21T13:57:15.136Z,13.20
2018-12-21T13:59:44.572Z,13.45
2018-12-21T14:02:14.240Z,12.92
2018-12-21T14:04:43.492Z,12.83
2018-12-21T14:07:12.764Z,13.11
2018-12-21T14:09:42.216Z,13.45
2018-12-21T14:12:11.561Z,13.72
2018-12-21T14:14:40.874Z,13.93
2018-12-21T14:17:10.198Z,13.61
2018-12-21T14:19:39.571Z,13.69
2018-12-21T14:22:08.979Z,13.69
2018-12-21T14:24:38.364Z,13.60
2018-12-21T14:27:07.551Z,13.71
2018-12-21T14:29:38.881Z,13.80
2018-12-21T14:32:08.304Z,13.86
2018-12-21T14:34:37.716Z,13.93
2018-12-21T14:37:07.077Z,13.99
2018-12-21T14:39:36.548Z,13.90
2018-12-21T14:42:05.691Z,14.18
2018-12-21T14:44:35.166Z,13.98
2018-12-21T14:47:04.779Z,13.62
2018-12-21T14:49:33.962Z,13.73
2018-12-21T14:52:04.106Z,13.44
2018-12-21T14:54:33.381Z,13.55
2018-12-21T14:57:02.668Z,13.57
2018-12-21T14:59:31.836Z,13.65
2018-12-21T15:02:01.108Z,13.70
2018-12-21T15:04:30.365Z,14.03
2018-12-21T15:06:59.757Z,13.64
2018-12-21T15:09:29.233Z,13.74
2018-12-21T15:11:58.721Z,13.65
2018-12-21T15:14:27.923Z,13.92
2018-12-21T15:16:57.147Z,14.03
2018-12-21T15:19:26.391Z,13.74
2018-12-21T15:21:57.392Z,13.99
2018-12-21T15:24:27.093Z,13.51
2018-12-21T15:26:56.381Z,13.84
2018-12-21T15:29:25.623Z,13.85
2018-12-21T15:31:54.805Z,13.95
2018-12-21T15:34:24.098Z,14.31
2018-12-21T15:36:53.267Z,14.02
2018-12-21T15:39:22.647Z,13.75
2018-12-21T15:41:51.892Z,13.53
2018-12-21T15:44:21.282Z,13.90
2018-12-21T15:46:50.476Z,14.19
2018-12-21T15:49:19.986Z,14.35
2018-12-21T15:51:49.211Z,14.02
2018-12-21T15:54:18.443Z,13.98
2018-12-21T15:56:48.047Z,14.22
2018-12-21T15:59:17.412Z,14.09
2018-12-21T16:01:46.728Z,14.35
2018-12-21T16:04:16.371Z,14.11
2018-12-21T16:06:45.467Z,14.33
2018-12-21T16:09:14.864Z,13.94
2018-12-21T16:11:44.124Z,14.22
2018-12-21T16:14:13.360Z,14.34
2018-12-21T16:16:42.611Z,14.48
2018-12-21T16:19:11.777Z,14.53
2018-12-21T16:21:41.264Z,14.57
2018-12-21T16:24:11.208Z,14.64
2018-12-21T16:26:40.988Z,14.61
2018-12-21T16:29:10.702Z,14.73
2018-12-21T16:31:39.908Z,14.90
2018-12-21T16:34:09.208Z,14.84
2018-12-21T16:36:38.339Z,14.82
2018-12-21T16:39:08.559Z,14.93
2018-12-21T16:41:37.891Z,14.82
2018-12-21T16:44:07.281Z,14.84
2018-12-21T16:46:36.619Z,14.83
2018-12-21T16:49:06.022Z,14.94
2018-12-21T16:51:35.263Z,14.77
2018-12-21T16:54:04.436Z,14.78
2018-12-21T16:56:34.032Z,14.76
2018-12-21T16:59:03.739Z,14.62
2018-12-21T17:01:32.947Z,14.64
2018-12-21T17:04:02.251Z,14.70
2018-12-21T17:06:31.447Z,14.92
2018-12-21T17:09:00.632Z,14.78
2018-12-21T17:11:35.775Z,14.81
2018-12-21T17:14:04.992Z,14.82
2018-12-21T17:16:34.143Z,14.63
2018-12-21T17:19:07.693Z,14.64
2018-12-21T17:21:37.263Z,14.59
2018-12-21T17:24:06.620Z,14.59
2018-12-21T17:26:37.632Z,14.54
2018-12-21T17:29:06.913Z,14.58
2018-12-21T17:31:36.624Z,14.73
2018-12-21T17:34:06.128Z,14.65
2018-12-21T17:36:35.592Z,14.53
2018-12-21T17:39:06.513Z,14.59
2018-12-21T17:41:35.709Z,14.64
2018-12-21T17:44:05.687Z,14.55
2018-12-21T17:46:35.032Z,14.44
2018-12-21T17:49:04.279Z,14.44
2018-12-21T17:51:33.555Z,14.56
2018-12-21T17:54:04.814Z,14.63
2018-12-21T17:56:34.283Z,14.48
2018-12-21T17:59:04.295Z,14.45
2018-12-21T18:01:35.055Z,14.51
2018-12-21T18:04:21.914Z,14.65
2018-12-21T18:06:51.310Z,14.64
2018-12-21T18:09:20.804Z,14.57
2018-12-21T18:11:57.204Z,14.45
2018-12-21T18:14:21.459Z,14.75
2018-12-21T18:16:50.531Z,14.62
2018-12-21T18:19:19.818Z,14.73
2018-12-21T18:21:58.203Z,14.77
2018-12-21T18:24:28.875Z,14.57
2018-12-21T18:26:58.360Z,14.64
2018-12-21T18:29:28.101Z,14.67
2018-12-21T18:32:04.523Z,14.76
2018-12-21T18:34:36.478Z,14.63
2018-12-21T18:37:08.215Z,14.76
2018-12-21T18:39:37.567Z,14.82
2018-12-21T18:42:07.013Z,14.81
2018-12-21T18:44:36.538Z,14.68
2018-12-21T18:47:05.972Z,14.81
2018-12-21T18:49:35.249Z,14.83
2018-12-21T18:52:04.487Z,14.81
2018-12-21T18:54:33.865Z,14.81
2018-12-21T18:57:07.124Z,14.89
2018-12-21T18:59:36.365Z,14.80
2018-12-21T19:02:05.522Z,14.93
2018-12-21T19:04:35.036Z,14.87
2018-12-21T19:07:04.267Z,14.85
2018-12-21T19:09:33.526Z,14.82
2018-12-21T19:12:02.835Z,14.96
2018-12-21T19:14:32.291Z,14.89
2018-12-21T19:17:01.533Z,14.82
2018-12-21T19:19:30.540Z,14.80
2018-12-21T19:21:59.938Z,14.93
2018-12-21T19:24:29.232Z,14.81
2018-12-21T19:26:58.395Z,14.89
2018-12-21T19:29:27.523Z,14.89
2018-12-21T19:31:56.680Z,15.03
2018-12-21T19:34:25.893Z,14.85
2018-12-21T19:36:55.031Z,14.84
2018-12-21T19:39:24.379Z,14.94
2018-12-21T19:41:53.724Z,14.92
2018-12-21T19:44:22.827Z,14.88
2018-12-21T19:46:52.049Z,14.90
2018-12-21T19:49:21.520Z,15.02
2018-12-21T19:51:50.617Z,14.96
2018-12-21T19:54:22.235Z,14.93
2018-12-21T19:57:05.829Z,14.96
2018-12-21T19:59:35.201Z,15.01
2018-12-21T20:02:04.394Z,15.02
2018-12-21T20:04:33.523Z,14.90
2018-12-21T20:07:02.749Z,14.97
2018-12-21T20:09:32.104Z,15.04
2018-12-21T20:12:01.326Z,15.01
2018-12-21T20:14:31.472Z,15.05
2018-12-21T20:17:00.617Z,15.02
2018-12-21T20:19:29.812Z,14.76
2018-12-21T20:21:59.252Z,14.76
2018-12-21T20:24:33.330Z,14.82
2018-12-21T20:27:13.376Z,14.89
2018-12-21T20:29:38.785Z,14.90
2018-12-21T20:32:08.320Z,14.91
2018-12-21T20:34:38.133Z,15.00
2018-12-21T20:37:07.331Z,14.86
2018-12-21T20:39:38.368Z,14.95
2018-12-21T20:42:07.549Z,14.96
2018-12-21T20:44:36.959Z,14.93
2018-12-21T20:47:06.408Z,14.91
2018-12-21T20:49:35.559Z,14.95
2018-12-21T20:52:04.856Z,14.84
2018-12-21T20:54:34.117Z,14.92
2018-12-21T20:57:04.183Z,14.90
2018-12-21T20:59:33.764Z,14.97
2018-12-21T21:02:02.921Z,14.83
2018-12-21T21:04:32.195Z,14.87
2018-12-21T21:07:01.527Z,14.95
2018-12-21T21:09:30.656Z,14.96
2018-12-21T21:11:59.884Z,15.01
2018-12-21T21:14:28.872Z,14.83
2018-12-21T21:16:58.027Z,14.92
2018-12-21T21:19:29.651Z,15.07
2018-12-21T21:21:58.753Z,14.96
2018-12-21T21:24:27.916Z,14.93
2018-12-21T21:26:56.987Z,15.04
2018-12-21T21:29:26.432Z,14.79
2018-12-21T21:31:55.814Z,14.71
2018-12-21T21:34:24.905Z,14.93
2018-12-21T21:36:54.024Z,15.06
2018-12-21T21:39:24.569Z,15.03
2018-12-21T21:41:53.931Z,15.01
2018-12-21T21:44:23.040Z,14.82
2018-12-21T21:46:52.267Z,15.00
2018-12-21T21:49:21.336Z,14.78
2018-12-21T21:51:50.364Z,14.88
2018-12-21T21:54:19.986Z,14.70
2018-12-21T21:56:49.259Z,14.88
2018-12-21T21:59:18.528Z,14.95
2018-12-21T22:01:47.760Z,15.05
2018-12-21T22:04:16.901Z,15.14
2018-12-21T22:06:46.024Z,15.04
2018-12-21T22:09:15.673Z,15.15
2018-12-21T22:11:44.744Z,14.84
2018-12-21T22:14:14.020Z,14.96
2018-12-21T22:16:43.201Z,15.12
2018-12-21T22:19:12.715Z,15.28
2018-12-21T22:21:42.061Z,15.18
2018-12-21T22:24:11.455Z,14.78
2018-12-21T22:26:40.573Z,14.73
2018-12-21T22:29:09.723Z,14.73
2018-12-21T22:31:39.024Z,14.77
2018-12-21T22:34:08.272Z,14.74
2018-12-21T22:36:37.693Z,14.67
2018-12-21T22:39:07.491Z,14.75
2018-12-21T22:41:36.744Z,14.96
2018-12-21T22:44:06.291Z,14.76
2018-12-21T22:46:35.518Z,14.87
2018-12-21T22:49:04.751Z,14.94
2018-12-21T22:51:34.019Z,14.98
2018-12-21T22:54:03.555Z,14.99
2018-12-21T22:56:33.016Z,14.96
2018-12-21T22:59:02.300Z,14.99
2018-12-21T23:01:31.449Z,14.91
2018-12-21T23:04:00.855Z,15.07
2018-12-21T23:06:30.187Z,15.01
2018-12-21T23:08:59.704Z,15.01
2018-12-21T23:11:29.061Z,14.95
2018-12-21T23:13:58.400Z,15.03
2018-12-21T23:16:27.760Z,15.15
2018-12-21T23:18:57.104Z,14.99
2018-12-21T23:21:26.336Z,15.12
2018-12-21T23:23:55.580Z,15.10
2018-12-21T23:26:24.744Z,15.22
2018-12-21T23:28:54.028Z,15.12
2018-12-21T23:31:23.121Z,14.97
2018-12-21T23:33:52.408Z,14.91
2018-12-21T23:36:21.730Z,15.00
2018-12-21T23:38:50.869Z,14.92
2018-12-21T23:41:20.212Z,14.99
2018-12-21T23:43:49.448Z,14.85
2018-12-21T23:46:18.832Z,15.09
2018-12-21T23:48:48.084Z,15.08
2018-12-21T23:51:17.789Z,14.94
2018-12-21T23:53:47.268Z,14.79
2018-12-21T23:56:17.372Z,14.94
2018-12-21T23:58:46.716Z,14.80
